sensor_id;sensor_type;location;lat;lon;timestamp;pressure;altitude;pressure_sealevel;temperature;humidity
61645;BME280;47553;52.428;13.382;2022-11-15T00:01:11;100958.19;;;5.51;100.00
61645;BME280;47553;52.428;13.382;2022-11-15T00:03:15;100955.53;;;5.51;100.00
61645;BME280;47553;52.428;13.382;2022-11-15T00:05:17;100954.69;;;5.50;100.00
61645;BME280;47553;52.428;13.382;2022-11-15T00:07:19;100956.84;;;5.64;100.00
61645;BME280;47553;52.428;13.382;2022-11-15T00:09:40;100948.22;;;5.59;100.00
61645;BME280;47553;52.428;13.382;2022-11-15T00:11:46;100951.28;;;5.47;100.00
61645;BME280;47553;52.428;13.382;2022-11-15T00:13:48;100938.97;;;5.46;100.00
61645;BME280;47553;52.428;13.382;2022-11-15T00:15:49;100947.41;;;5.57;100.00
61645;BME280;47553;52.428;13.382;2022-11-15T00:17:52;100943.94;;;5.55;100.00
61645;BME280;47553;52.428;13.382;2022-11-15T00:19:54;100947.00;;;5.43;100.00
61645;BME280;47553;52.428;13.382;2022-11-15T00:21:55;100942.69;;;5.40;100.00
61645;BME280;47553;52.428;13.382;2022-11-15T00:23:58;100929.00;;;5.27;100.00
61645;BME280;47553;52.428;13.382;2022-11-15T00:25:59;100940.78;;;5.44;100.00
61645;BME280;47553;52.428;13.382;2022-11-15T00:28:01;100936.41;;;5.43;100.00
61645;BME280;47553;52.428;13.382;2022-11-15T00:30:04;100936.41;;;5.43;100.00
61645;BME280;47553;52.428;13.382;2022-11-15T00:32:06;100929.28;;;5.45;100.00
61645;BME280;47553;52.428;13.382;2022-11-15T00:34:09;100935.34;;;5.48;100.00
61645;BME280;47553;52.428;13.382;2022-11-15T00:36:12;100924.00;;;5.45;100.00
61645;BME280;47553;52.428;13.382;2022-11-15T00:38:16;100927.16;;;5.56;100.00
61645;BME280;47553;52.428;13.382;2022-11-15T00:40:18;100927.34;;;5.50;100.00
61645;BME280;47553;52.428;13.382;2022-11-15T00:42:19;100928.63;;;5.38;100.00
61645;BME280;47553;52.428;13.382;2022-11-15T00:44:21;100933.47;;;5.25;100.00
61645;BME280;47553;52.428;13.382;2022-11-15T00:46:22;100927.97;;;5.31;100.00
61645;BME280;47553;52.428;13.382;2022-11-15T00:48:24;100926.16;;;5.33;100.00
61645;BME280;47553;52.428;13.382;2022-11-15T00:50:27;100905.09;;;5.30;100.00
61645;BME280;47553;52.428;13.382;2022-11-15T00:52:28;100916.22;;;5.40;100.00
61645;BME280;47553;52.428;13.382;2022-11-15T00:54:30;100918.09;;;5.36;100.00
61645;BME280;47553;52.428;13.382;2022-11-15T00:56:31;100919.47;;;5.48;100.00
61645;BME280;47553;52.428;13.382;2022-11-15T00:58:33;100910.66;;;5.48;100.00
61645;BME280;47553;52.428;13.382;2022-11-15T01:00:34;100913.38;;;5.46;100.00
61645;BME280;47553;52.428;13.382;2022-11-15T01:02:36;100909.84;;;5.46;100.00
61645;BME280;47553;52.428;13.382;2022-11-15T01:04:38;100909.25;;;5.37;100.00
61645;BME280;47553;52.428;13.382;2022-11-15T01:06:40;100912.13;;;5.31;100.00
61645;BME280;47553;52.428;13.382;2022-11-15T01:08:42;100909.25;;;5.37;100.00
61645;BME280;47553;52.428;13.382;2022-11-15T01:10:43;100909.72;;;5.24;100.00
61645;BME280;47553;52.428;13.382;2022-11-15T01:12:45;100906.88;;;5.30;100.00
61645;BME280;47553;52.428;13.382;2022-11-15T01:14:50;100910.28;;;5.33;100.00
61645;BME280;47553;52.428;13.382;2022-11-15T01:16:51;100901.09;;;5.19;100.00
61645;BME280;47553;52.428;13.382;2022-11-15T01:18:53;100906.16;;;5.25;100.00
61645;BME280;47553;52.428;13.382;2022-11-15T01:20:54;100898.19;;;5.26;100.00
61645;BME280;47553;52.428;13.382;2022-11-15T01:22:57;100902.59;;;5.26;100.00
61645;BME280;47553;52.428;13.382;2022-11-15T01:24:59;100898.34;;;5.22;100.00
61645;BME280;47553;52.428;13.382;2022-11-15T01:27:00;100902.03;;;5.16;100.00
61645;BME280;47553;52.428;13.382;2022-11-15T01:29:02;100898.78;;;5.08;100.00
61645;BME280;47553;52.428;13.382;2022-11-15T01:31:06;100875.81;;;5.10;100.00
61645;BME280;47553;52.428;13.382;2022-11-15T01:33:07;100885.47;;;5.11;100.00
61645;BME280;47553;52.428;13.382;2022-11-15T01:35:09;100882.53;;;5.20;100.00
61645;BME280;47553;52.428;13.382;2022-11-15T01:37:10;100873.56;;;5.24;100.00
61645;BME280;47553;52.428;13.382;2022-11-15T01:39:13;100878.66;;;5.30;100.00
61645;BME280;47553;52.428;13.382;2022-11-15T01:41:16;100875.28;;;5.25;100.00
61645;BME280;47553;52.428;13.382;2022-11-15T01:43:20;100868.94;;;5.31;100.00
61645;BME280;47553;52.428;13.382;2022-11-15T01:45:23;100865.47;;;5.29;100.00
61645;BME280;47553;52.428;13.382;2022-11-15T01:47:26;100863.84;;;5.25;100.00
61645;BME280;47553;52.428;13.382;2022-11-15T01:49:30;100856.19;;;5.17;100.00
61645;BME280;47553;52.428;13.382;2022-11-15T01:51:33;100858.16;;;5.11;100.00
61645;BME280;47553;52.428;13.382;2022-11-15T01:53:36;100851.91;;;5.13;100.00
61645;BME280;47553;52.428;13.382;2022-11-15T01:55:41;100843.16;;;5.11;100.00
61645;BME280;47553;52.428;13.382;2022-11-15T01:57:45;100833.41;;;5.13;100.00
61645;BME280;47553;52.428;13.382;2022-11-15T01:59:47;100841.66;;;5.04;100.00
61645;BME280;47553;52.428;13.382;2022-11-15T02:01:49;100842.47;;;5.06;100.00
61645;BME280;47553;52.428;13.382;2022-11-15T02:03:55;100823.34;;;4.98;100.00
61645;BME280;47553;52.428;13.382;2022-11-15T02:05:59;100826.81;;;5.00;100.00
61645;BME280;47553;52.428;13.382;2022-11-15T02:08:00;100832.66;;;5.10;100.00
61645;BME280;47553;52.428;13.382;2022-11-15T02:10:06;100840.41;;;5.14;100.00
61645;BME280;47553;52.428;13.382;2022-11-15T02:12:11;100835.28;;;5.10;100.00
61645;BME280;47553;52.428;13.382;2022-11-15T02:14:16;100825.09;;;4.99;100.00
61645;BME280;47553;52.428;13.382;2022-11-15T02:16:26;100830.25;;;5.02;100.00
61645;BME280;47553;52.428;13.382;2022-11-15T02:18:37;100827.34;;;5.10;100.00
61645;BME280;47553;52.428;13.382;2022-11-15T02:26:10;100826.19;;;5.18;100.00
61645;BME280;47553;52.428;13.382;2022-11-15T02:28:30;100827.09;;;5.17;100.00
61645;BME280;47553;52.428;13.382;2022-11-15T02:30:42;100834.91;;;5.20;100.00
61645;BME280;47553;52.428;13.382;2022-11-15T02:32:50;100835.13;;;5.14;100.00
61645;BME280;47553;52.428;13.382;2022-11-15T02:34:58;100828.44;;;5.04;100.00
61645;BME280;47553;52.428;13.382;2022-11-15T02:37:09;100830.97;;;5.07;100.00
61645;BME280;47553;52.428;13.382;2022-11-15T02:39:19;100832.19;;;4.97;100.00
61645;BME280;47553;52.428;13.382;2022-11-15T02:41:26;100835.56;;;5.02;100.00
61645;BME280;47553;52.428;13.382;2022-11-15T02:43:37;100831.28;;;4.98;100.00
61645;BME280;47553;52.428;13.382;2022-11-15T02:45:46;100826.81;;;5.00;100.00
61645;BME280;47553;52.428;13.382;2022-11-15T02:47:51;100814.41;;;5.02;100.00
61645;BME280;47553;52.428;13.382;2022-11-15T02:49:59;100819.47;;;5.08;100.00
61645;BME280;47553;52.428;13.382;2022-11-15T02:52:02;100816.47;;;5.19;100.00
61645;BME280;47553;52.428;13.382;2022-11-15T02:54:03;100821.41;;;5.03;100.00
61645;BME280;47553;52.428;13.382;2022-11-15T02:56:07;100820.41;;;5.07;100.00
61645;BME280;47553;52.428;13.382;2022-11-15T02:58:23;100817.84;;;5.04;100.00
61645;BME280;47553;52.428;13.382;2022-11-15T03:00:34;100819.78;;;4.99;100.00
61645;BME280;47553;52.428;13.382;2022-11-15T03:02:56;100819.31;;;4.85;100.00
61645;BME280;47553;52.428;13.382;2022-11-15T03:05:02;100817.69;;;4.81;100.00
61645;BME280;47553;52.428;13.382;2022-11-15T03:07:11;100816.94;;;4.77;100.00
61645;BME280;47553;52.428;13.382;2022-11-15T03:09:24;100808.63;;;4.89;100.00
61645;BME280;47553;52.428;13.382;2022-11-15T03:11:32;100815.06;;;4.81;100.00
61645;BME280;47553;52.428;13.382;2022-11-15T03:13:43;100814.03;;;4.85;100.00
61645;BME280;47553;52.428;13.382;2022-11-15T03:15:54;100799.09;;;4.84;100.00
61645;BME280;47553;52.428;13.382;2022-11-15T03:18:02;100796.31;;;4.88;100.00
61645;BME280;47553;52.428;13.382;2022-11-15T03:20:08;100813.03;;;4.89;100.00
61645;BME280;47553;52.428;13.382;2022-11-15T03:22:14;100798.13;;;4.60;100.00
61645;BME280;47553;52.428;13.382;2022-11-15T03:24:19;100812.91;;;4.65;100.00
61645;BME280;47553;52.428;13.382;2022-11-15T03:26:28;100804.03;;;4.68;100.00
61645;BME280;47553;52.428;13.382;2022-11-15T03:28:34;100810.38;;;4.62;100.00
61645;BME280;47553;52.428;13.382;2022-11-15T03:30:39;100799.91;;;4.59;100.00
61645;BME280;47553;52.428;13.382;2022-11-15T03:32:44;100812.22;;;4.60;100.00
61645;BME280;47553;52.428;13.382;2022-11-15T03:34:50;100805.59;;;4.73;100.00
61645;BME280;47553;52.428;13.382;2022-11-15T03:36:53;100804.22;;;4.90;100.00
61645;BME280;47553;52.428;13.382;2022-11-15T03:38:58;100811.41;;;4.85;100.00
61645;BME280;47553;52.428;13.382;2022-11-15T03:41:04;100801.44;;;4.66;100.00
61645;BME280;47553;52.428;13.382;2022-11-15T03:43:10;100806.22;;;4.82;100.00
61645;BME280;47553;52.428;13.382;2022-11-15T03:45:18;100804.28;;;4.87;100.00
61645;BME280;47553;52.428;13.382;2022-11-15T03:47:24;100807.94;;;4.83;100.00
61645;BME280;47553;52.428;13.382;2022-11-15T03:49:31;100806.63;;;4.69;100.00
61645;BME280;47553;52.428;13.382;2022-11-15T03:51:35;100807.22;;;4.51;100.00
61645;BME280;47553;52.428;13.382;2022-11-15T03:53:37;100805.41;;;4.53;100.00
61645;BME280;47553;52.428;13.382;2022-11-15T03:55:38;100805.50;;;4.50;100.00
61645;BME280;47553;52.428;13.382;2022-11-15T03:57:40;100808.94;;;4.52;100.00
61645;BME280;47553;52.428;13.382;2022-11-15T03:59:41;100804.16;;;4.37;100.00
61645;BME280;47553;52.428;13.382;2022-11-15T04:01:43;100802.84;;;4.50;100.00
61645;BME280;47553;52.428;13.382;2022-11-15T04:03:44;100799.06;;;4.59;100.00
61645;BME280;47553;52.428;13.382;2022-11-15T04:05:46;100796.97;;;4.68;100.00
61645;BME280;47553;52.428;13.382;2022-11-15T04:07:49;100798.78;;;4.66;100.00
61645;BME280;47553;52.428;13.382;2022-11-15T04:09:51;100789.75;;;4.73;100.00
61645;BME280;47553;52.428;13.382;2022-11-15T04:11:52;100799.59;;;4.68;100.00
61645;BME280;47553;52.428;13.382;2022-11-15T04:13:53;100787.22;;;4.70;100.00
61645;BME280;47553;52.428;13.382;2022-11-15T04:15:55;100795.41;;;4.63;100.00
61645;BME280;47553;52.428;13.382;2022-11-15T04:17:57;100791.56;;;4.45;100.00
61645;BME280;47553;52.428;13.382;2022-11-15T04:19:58;100791.16;;;4.57;100.00
61645;BME280;47553;52.428;13.382;2022-11-15T04:22:00;100781.66;;;4.52;100.00
61645;BME280;47553;52.428;13.382;2022-11-15T04:24:03;100788.00;;;4.46;100.00
61645;BME280;47553;52.428;13.382;2022-11-15T04:26:07;100778.16;;;4.51;100.00
61645;BME280;47553;52.428;13.382;2022-11-15T04:28:10;100777.91;;;4.59;100.00
61645;BME280;47553;52.428;13.382;2022-11-15T04:30:12;100773.50;;;4.59;100.00
61645;BME280;47553;52.428;13.382;2022-11-15T04:32:13;100787.16;;;4.46;100.00
61645;BME280;47553;52.428;13.382;2022-11-15T04:34:15;100787.91;;;4.49;100.00
61645;BME280;47553;52.428;13.382;2022-11-15T04:36:16;100771.88;;;4.55;100.00
61645;BME280;47553;52.428;13.382;2022-11-15T04:38:18;100776.44;;;4.77;100.00
61645;BME280;47553;52.428;13.382;2022-11-15T04:40:20;100781.63;;;4.80;100.00
61645;BME280;47553;52.428;13.382;2022-11-15T04:42:22;100774.88;;;4.71;100.00
61645;BME280;47553;52.428;13.382;2022-11-15T04:44:23;100775.38;;;4.82;100.00
61645;BME280;47553;52.428;13.382;2022-11-15T04:46:26;100769.63;;;4.97;100.00
61645;BME280;47553;52.428;13.382;2022-11-15T04:48:27;100763.84;;;4.85;100.00
61645;BME280;47553;52.428;13.382;2022-11-15T04:50:29;100769.00;;;4.88;100.00
61645;BME280;47553;52.428;13.382;2022-11-15T04:52:30;100767.03;;;4.96;100.00
61645;BME280;47553;52.428;13.382;2022-11-15T04:54:32;100768.84;;;4.94;100.00
61645;BME280;47553;52.428;13.382;2022-11-15T04:56:35;100770.50;;;4.98;100.00
61645;BME280;47553;52.428;13.382;2022-11-15T04:58:36;100775.53;;;4.78;100.00
61645;BME280;47553;52.428;13.382;2022-11-15T05:00:38;100769.94;;;4.60;100.00
61645;BME280;47553;52.428;13.382;2022-11-15T05:02:40;100766.06;;;4.70;100.00
61645;BME280;47553;52.428;13.382;2022-11-15T05:04:41;100767.38;;;4.84;100.00
61645;BME280;47553;52.428;13.382;2022-11-15T05:06:43;100768.31;;;4.83;100.00
61645;BME280;47553;52.428;13.382;2022-11-15T05:08:44;100764.13;;;4.75;100.00
61645;BME280;47553;52.428;13.382;2022-11-15T05:10:47;100770.34;;;4.74;100.00
61645;BME280;47553;52.428;13.382;2022-11-15T05:12:50;100771.09;;;4.78;100.00
61645;BME280;47553;52.428;13.382;2022-11-15T05:14:52;100765.88;;;4.77;100.00
61645;BME280;47553;52.428;13.382;2022-11-15T05:16:53;100775.53;;;4.78;100.00
61645;BME280;47553;52.428;13.382;2022-11-15T05:18:55;100766.16;;;4.95;100.00
61645;BME280;47553;52.428;13.382;2022-11-15T05:20:56;100768.53;;;5.03;100.00
61645;BME280;47553;52.428;13.382;2022-11-15T05:23:04;100767.63;;;5.04;100.00
61645;BME280;47553;52.428;13.382;2022-11-15T05:25:06;100761.06;;;4.89;100.00
61645;BME280;47553;52.428;13.382;2022-11-15T05:27:08;100763.47;;;4.97;100.00
61645;BME280;47553;52.428;13.382;2022-11-15T05:29:11;100761.81;;;4.66;100.00
61645;BME280;47553;52.428;13.382;2022-11-15T05:31:14;100775.03;;;4.66;100.00
61645;BME280;47553;52.428;13.382;2022-11-15T05:33:17;100770.50;;;4.70;100.00
61645;BME280;47553;52.428;13.382;2022-11-15T05:35:22;100766.34;;;4.89;100.00
61645;BME280;47553;52.428;13.382;2022-11-15T05:37:28;100768.75;;;4.97;100.00
61645;BME280;47553;52.428;13.382;2022-11-15T05:39:30;100761.75;;;4.96;100.00
61645;BME280;47553;52.428;13.382;2022-11-15T05:41:34;100764.50;;;4.91;100.00
61645;BME280;47553;52.428;13.382;2022-11-15T05:43:38;100762.72;;;4.92;100.00
61645;BME280;47553;52.428;13.382;2022-11-15T05:45:42;100769.13;;;4.85;100.00
61645;BME280;47553;52.428;13.382;2022-11-15T05:47:44;100774.41;;;4.85;100.00
61645;BME280;47553;52.428;13.382;2022-11-15T05:49:48;100772.38;;;4.93;100.00
61645;BME280;47553;52.428;13.382;2022-11-15T05:51:52;100770.66;;;4.92;100.00
61645;BME280;47553;52.428;13.382;2022-11-15T05:53:56;100768.84;;;4.94;100.00
61645;BME280;47553;52.428;13.382;2022-11-15T05:55:58;100772.66;;;5.12;100.00
61645;BME280;47553;52.428;13.382;2022-11-15T05:58:00;100765.59;;;5.12;100.00
61645;BME280;47553;52.428;13.382;2022-11-15T06:00:03;100768.13;;;5.15;100.00
61645;BME280;47553;52.428;13.382;2022-11-15T06:02:06;100773.50;;;5.12;100.00
61645;BME280;47553;52.428;13.382;2022-11-15T06:04:08;100767.31;;;5.13;100.00
61645;BME280;47553;52.428;13.382;2022-11-15T06:06:09;100770.81;;;5.14;100.00
61645;BME280;47553;52.428;13.382;2022-11-15T06:08:16;100765.75;;;5.08;100.00
61645;BME280;47553;52.428;13.382;2022-11-15T06:10:18;100771.91;;;5.08;100.00
61645;BME280;47553;52.428;13.382;2022-11-15T06:12:19;100765.09;;;5.01;100.00
61645;BME280;47553;52.428;13.382;2022-11-15T06:14:21;100772.50;;;4.90;100.00
61645;BME280;47553;52.428;13.382;2022-11-15T06:16:22;100768.84;;;4.94;100.00
61645;BME280;47553;52.428;13.382;2022-11-15T06:18:25;100771.63;;;4.89;100.00
61645;BME280;47553;52.428;13.382;2022-11-15T06:20:28;100774.97;;;4.96;100.00
61645;BME280;47553;52.428;13.382;2022-11-15T06:22:30;100778.88;;;4.83;100.00
61645;BME280;47553;52.428;13.382;2022-11-15T06:24:31;100790.94;;;4.91;100.00
61645;BME280;47553;52.428;13.382;2022-11-15T06:26:33;100789.91;;;4.97;100.00
61645;BME280;47553;52.428;13.382;2022-11-15T06:28:34;100782.03;;;4.95;100.00
61645;BME280;47553;52.428;13.382;2022-11-15T06:30:36;100778.38;;;4.99;100.00
61645;BME280;47553;52.428;13.382;2022-11-15T06:32:40;100778.09;;;5.07;100.00
61645;BME280;47553;52.428;13.382;2022-11-15T06:34:43;100785.09;;;5.08;100.00
61645;BME280;47553;52.428;13.382;2022-11-15T06:36:45;100784.63;;;4.97;100.00
61645;BME280;47553;52.428;13.382;2022-11-15T06:38:46;100782.69;;;5.02;100.00
61645;BME280;47553;52.428;13.382;2022-11-15T06:40:48;100777.63;;;4.94;100.00
61645;BME280;47553;52.428;13.382;2022-11-15T06:42:49;100781.88;;;5.00;100.00
61645;BME280;47553;52.428;13.382;2022-11-15T06:44:51;100786.25;;;5.01;100.00
61645;BME280;47553;52.428;13.382;2022-11-15T06:46:52;100793.63;;;4.90;100.00
61645;BME280;47553;52.428;13.382;2022-11-15T06:48:54;100793.63;;;4.90;100.00
61645;BME280;47553;52.428;13.382;2022-11-15T06:50:58;100789.38;;;5.12;100.00
61645;BME280;47553;52.428;13.382;2022-11-15T06:53:01;100790.06;;;5.17;100.00
61645;BME280;47553;52.428;13.382;2022-11-15T06:55:04;100790.44;;;5.07;100.00
61645;BME280;47553;52.428;13.382;2022-11-15T06:57:05;100800.06;;;5.09;100.00
61645;BME280;47553;52.428;13.382;2022-11-15T06:59:07;100796.94;;;5.23;100.00
61645;BME280;47553;52.428;13.382;2022-11-15T07:01:10;100781.44;;;5.12;100.00
61645;BME280;47553;52.428;13.382;2022-11-15T07:03:12;100794.00;;;5.30;100.00
61645;BME280;47553;52.428;13.382;2022-11-15T07:05:13;100800.00;;;5.35;100.00
61645;BME280;47553;52.428;13.382;2022-11-15T07:07:17;100802.06;;;5.27;100.00
61645;BME280;47553;52.428;13.382;2022-11-15T07:09:18;100793.91;;;5.33;100.00
61645;BME280;47553;52.428;13.382;2022-11-15T07:11:20;100798.34;;;5.33;100.00
61645;BME280;47553;52.428;13.382;2022-11-15T07:13:23;100801.03;;;5.07;100.00
61645;BME280;47553;52.428;13.382;2022-11-15T07:15:25;100785.28;;;5.28;100.00
61645;BME280;47553;52.428;13.382;2022-11-15T07:17:27;100802.47;;;5.40;100.00
61645;BME280;47553;52.428;13.382;2022-11-15T07:19:28;100806.00;;;5.41;100.00
61645;BME280;47553;52.428;13.382;2022-11-15T07:21:30;100802.53;;;5.38;100.00
61645;BME280;47553;52.428;13.382;2022-11-15T07:23:33;100811.16;;;5.44;100.00
61645;BME280;47553;52.428;13.382;2022-11-15T07:25:37;100807.50;;;5.48;100.00
61645;BME280;47553;52.428;13.382;2022-11-15T07:27:38;100813.38;;;5.56;100.00
61645;BME280;47553;52.428;13.382;2022-11-15T07:29:40;100807.06;;;5.60;100.00
61645;BME280;47553;52.428;13.382;2022-11-15T07:31:43;100805.22;;;5.62;100.00
61645;BME280;47553;52.428;13.382;2022-11-15T07:33:45;100808.66;;;5.64;100.00
61645;BME280;47553;52.428;13.382;2022-11-15T07:35:46;100804.78;;;5.74;100.00
61645;BME280;47553;52.428;13.382;2022-11-15T07:37:55;100809.00;;;5.80;100.00
61645;BME280;47553;52.428;13.382;2022-11-15T07:39:58;100806.75;;;5.92;100.00
61645;BME280;47553;52.428;13.382;2022-11-15T07:42:00;100814.56;;;5.72;100.00
61645;BME280;47553;52.428;13.382;2022-11-15T07:44:01;100809.75;;;5.83;100.00
61645;BME280;47553;52.428;13.382;2022-11-15T07:46:04;100810.66;;;5.82;100.00
61645;BME280;47553;52.428;13.382;2022-11-15T07:48:06;100810.16;;;5.96;100.00
61645;BME280;47553;52.428;13.382;2022-11-15T07:50:07;100812.25;;;6.10;100.00
61645;BME280;47553;52.428;13.382;2022-11-15T07:52:09;100809.38;;;6.16;100.00
61645;BME280;47553;52.428;13.382;2022-11-15T07:54:10;100810.06;;;6.21;100.00
61645;BME280;47553;52.428;13.382;2022-11-15T07:56:13;100804.44;;;6.07;100.00
61645;BME280;47553;52.428;13.382;2022-11-15T07:58:15;100804.56;;;6.04;100.00
61645;BME280;47553;52.428;13.382;2022-11-15T08:00:16;100801.22;;;5.98;100.00
61645;BME280;47553;52.428;13.382;2022-11-15T08:02:18;100799.38;;;6.00;100.00
61645;BME280;47553;52.428;13.382;2022-11-15T08:04:20;100796.38;;;6.10;100.00
61645;BME280;47553;52.428;13.382;2022-11-15T08:06:22;100796.84;;;5.97;100.00
61645;BME280;47553;52.428;13.382;2022-11-15T08:08:23;100796.19;;;6.14;100.00
61645;BME280;47553;52.428;13.382;2022-11-15T08:10:25;100789.38;;;6.30;100.00
61645;BME280;47553;52.428;13.382;2022-11-15T08:12:28;100784.94;;;6.31;100.00
61645;BME280;47553;52.428;13.382;2022-11-15T08:14:32;100788.38;;;6.33;100.00
61645;BME280;47553;52.428;13.382;2022-11-15T08:16:34;100786.66;;;6.32;100.00
61645;BME280;47553;52.428;13.382;2022-11-15T08:18:35;100790.25;;;6.53;100.00
61645;BME280;47553;52.428;13.382;2022-11-15T08:20:37;100792.59;;;6.60;100.00
61645;BME280;47553;52.428;13.382;2022-11-15T08:22:39;100789.56;;;6.70;100.00
61645;BME280;47553;52.428;13.382;2022-11-15T08:24:40;100792.78;;;6.78;100.00
61645;BME280;47553;52.428;13.382;2022-11-15T08:26:41;100787.34;;;6.81;100.00
61645;BME280;47553;52.428;13.382;2022-11-15T08:28:44;100794.78;;;6.93;100.00
61645;BME280;47553;52.428;13.382;2022-11-15T08:30:46;100787.34;;;7.01;100.00
61645;BME280;47553;52.428;13.382;2022-11-15T08:32:48;100789.88;;;7.04;100.00
61645;BME280;47553;52.428;13.382;2022-11-15T08:34:50;100784.25;;;7.12;100.00
61645;BME280;47553;52.428;13.382;2022-11-15T08:36:51;100785.75;;;7.19;100.00
61645;BME280;47553;52.428;13.382;2022-11-15T08:38:53;100780.16;;;7.25;100.00
61645;BME280;47553;52.428;13.382;2022-11-15T08:40:58;100782.47;;;7.33;100.00
61645;BME280;47553;52.428;13.382;2022-11-15T08:43:01;100776.66;;;7.45;100.00
61645;BME280;47553;52.428;13.382;2022-11-15T08:45:04;100771.75;;;7.36;100.00
61645;BME280;47553;52.428;13.382;2022-11-15T08:47:06;100783.09;;;7.39;100.00
61645;BME280;47553;52.428;13.382;2022-11-15T08:49:08;100779.97;;;7.50;100.00
61645;BME280;47553;52.428;13.382;2022-11-15T08:51:10;100784.34;;;7.51;100.00
61645;BME280;47553;52.428;13.382;2022-11-15T08:53:12;100785.28;;;7.50;100.00
61645;BME280;47553;52.428;13.382;2022-11-15T08:55:14;100786.72;;;7.57;100.00
61645;BME280;47553;52.428;13.382;2022-11-15T08:57:18;100782.88;;;7.64;100.00
61645;BME280;47553;52.428;13.382;2022-11-15T08:59:19;100781.88;;;7.85;100.00
61645;BME280;47553;52.428;13.382;2022-11-15T09:01:22;100788.25;;;8.02;100.00
61645;BME280;47553;52.428;13.382;2022-11-15T09:03:24;100785.22;;;8.28;100.00
61645;BME280;47553;52.428;13.382;2022-11-15T09:05:26;100782.78;;;8.23;100.00
61645;BME280;47553;52.428;13.382;2022-11-15T09:07:28;100783.78;;;8.21;100.00
61645;BME280;47553;52.428;13.382;2022-11-15T09:09:29;100788.66;;;8.30;100.00
61645;BME280;47553;52.428;13.382;2022-11-15T09:11:31;100775.00;;;8.38;100.00
61645;BME280;47553;52.428;13.382;2022-11-15T09:13:32;100778.44;;;8.40;100.00
61645;BME280;47553;52.428;13.382;2022-11-15T09:15:34;100776.81;;;8.54;100.00
61645;BME280;47553;52.428;13.382;2022-11-15T09:17:37;100780.63;;;8.68;100.00
61645;BME280;47553;52.428;13.382;2022-11-15T09:19:39;100782.84;;;8.77;100.00
61645;BME280;47553;52.428;13.382;2022-11-15T09:21:40;100787.06;;;8.81;100.00
61645;BME280;47553;52.428;13.382;2022-11-15T09:23:42;100784.41;;;8.81;100.00
61645;BME280;47553;52.428;13.382;2022-11-15T09:25:43;100787.69;;;8.86;100.00
61645;BME280;47553;52.428;13.382;2022-11-15T09:27:45;100786.44;;;8.93;100.00
61645;BME280;47553;52.428;13.382;2022-11-15T09:29:47;100788.31;;;8.91;100.00
61645;BME280;47553;52.428;13.382;2022-11-15T09:31:48;100781.59;;;9.01;100.00
61645;BME280;47553;52.428;13.382;2022-11-15T09:33:51;100786.44;;;9.10;100.00
61645;BME280;47553;52.428;13.382;2022-11-15T09:35:53;100783.97;;;9.25;100.00
61645;BME280;47553;52.428;13.382;2022-11-15T09:37:57;100781.75;;;9.15;100.00
61645;BME280;47553;52.428;13.382;2022-11-15T09:39:58;100784.75;;;9.27;100.00
61645;BME280;47553;52.428;13.382;2022-11-15T09:44:41;100788.66;;;9.37;100.00
61645;BME280;47553;52.428;13.382;2022-11-15T09:46:49;100788.75;;;9.53;100.00
61645;BME280;47553;52.428;13.382;2022-11-15T09:48:55;100783.63;;;9.65;100.00
61645;BME280;47553;52.428;13.382;2022-11-15T09:50:57;100785.50;;;9.63;100.00
61645;BME280;47553;52.428;13.382;2022-11-15T09:52:59;100783.03;;;9.76;100.00
61645;BME280;47553;52.428;13.382;2022-11-15T09:55:01;100776.09;;;9.89;100.00
61645;BME280;47553;52.428;13.382;2022-11-15T09:57:05;100773.34;;;9.91;100.00
61645;BME280;47553;52.428;13.382;2022-11-15T09:59:28;100774.75;;;9.98;100.00
61645;BME280;47553;52.428;13.382;2022-11-15T10:01:41;100777.03;;;10.21;99.53
61645;BME280;47553;52.428;13.382;2022-11-15T10:03:45;100769.97;;;10.20;98.97
61645;BME280;47553;52.428;13.382;2022-11-15T10:05:49;100768.41;;;10.16;99.36
61645;BME280;47553;52.428;13.382;2022-11-15T10:07:59;100770.13;;;10.17;99.16
61645;BME280;47553;52.428;13.382;2022-11-15T10:10:10;100764.13;;;10.29;99.17
61645;BME280;47553;52.428;13.382;2022-11-15T10:12:15;100760.50;;;10.30;97.92
61645;BME280;47553;52.428;13.382;2022-11-15T10:14:19;100763.59;;;10.38;99.26
61645;BME280;47553;52.428;13.382;2022-11-15T10:19:06;100749.56;;;10.35;98.66
61645;BME280;47553;52.428;13.382;2022-11-15T10:21:15;100739.41;;;10.41;100.00
61645;BME280;47553;52.428;13.382;2022-11-15T10:23:19;100740.38;;;10.40;98.92
61645;BME280;47553;52.428;13.382;2022-11-15T10:25:23;100733.84;;;10.30;98.85
61645;BME280;47553;52.428;13.382;2022-11-15T10:27:26;100735.13;;;10.39;98.78
61645;BME280;47553;52.428;13.382;2022-11-15T10:29:27;100735.81;;;10.42;98.24
61645;BME280;47553;52.428;13.382;2022-11-15T10:31:29;100732.97;;;10.45;97.72
61645;BME280;47553;52.428;13.382;2022-11-15T10:33:32;100707.13;;;10.62;96.24
61645;BME280;47553;52.428;13.382;2022-11-15T10:35:34;100718.16;;;10.56;97.19
61645;BME280;47553;52.428;13.382;2022-11-15T10:37:37;100714.00;;;10.66;96.25
61645;BME280;47553;52.428;13.382;2022-11-15T10:39:38;100700.56;;;10.67;97.08
61645;BME280;47553;52.428;13.382;2022-11-15T10:41:42;100715.97;;;10.78;97.87
61645;BME280;47553;52.428;13.382;2022-11-15T10:43:44;100700.72;;;10.80;96.50
61645;BME280;47553;52.428;13.382;2022-11-15T10:45:46;100701.84;;;10.92;96.08
61645;BME280;47553;52.428;13.382;2022-11-15T10:47:48;100697.75;;;11.00;95.75